Slaughter, Louisiana
Current Conditions -  °F | °C
As of 5:56 PM on Friday 19 Dec 2014 (Local Time) from KBTR Reporting Station
Moderate Rain Moderate Rain  
Wind Chill: 43°   Ceiling: 2300
Heat Index: 47°   Visibility: 4mi
Dew Point: 45°   Wind: 9mph
Humidity: 93%   Direction: 50°NE
Pressure: 30.1"   Gusts: NA
Location:  30.72°N, 91.14°W
Report Text: KBTR 192356Z AUTO 05008KT 4SM RA BR SCT007 BKN023 OVC029 08/07 A3010 RMK AO2 P0001 T00830072 TSNO
Loading
Personal Weather Stations






























Interactive Weather Map New forecast layout! Learn more

10-Day Weather Forecast

Advertisements
Track Severe Weather on mobile